Terminal Aerodrome Forecast
Issued by NWS Columbia, SC

Home | Current Version | Previous Version | Text Only | Print | Product List | Glossary On
Versions: 1 2 3 4 5 6 7 8 9 10 11 12 13 14 15 16 17 18 19 20 21 22 23 24 25 26 27 28 29
000
FTUS42 KCAE 261700
TAFCAE
TAF
KCAE 261734Z 2618/2718 23010G18KT P6SM SCT040 BKN070
     FM270300 22006KT P6SM VCSH BKN040
     FM270800 23007KT 4SM -SHRA BR SCT007 OVC025
     FM271600 29013KT P6SM -RA OVC025=

USA.gov is the U.S. government's official web portal to all federal, state and local government web resources and services.